Aérodrome :
LOGIN :

S'inscrire | Disclaimer

   EN    FR    IT 

 










Légende :    VFR   VFR Marginal   IFR   IFR Intensif   IFR Très Intensif
Visi : 
Plafond : 
>= 8 km
>= 3000ft
5 à 8 km
1000 à 3000 ft
1500m à 5 km
500 à 1000 ft
800 à 1500m
200 à 500 ft
< 800m
< 200 ft
Symboles :   Orages  Brouillard  Fortes neiges  Fortes précipitations  Vent > 20 kt
SIGMETs :   Divers  Orages  Givrage  Turbulence  Onde Orograph.  Cendres Volcan.







- Altitude de l'aérodrome : 56 ft
- Code IATA : BZR
- Voir les cartes d'approche


LFMU - Beziers / Vias

DERNIER METAR :
  • 232130Z AUTO 13013KT 9999 OVC013 15/13 Q1000

METARs EXPIRÉS :
  • 232100Z AUTO 12013KT 090V150 9999 OVC012 15/13 Q1000
  • 232030Z AUTO 12012KT 9999 OVC012 15/13 Q0999 TEMPO 13020G35KT BKN006
  • 232000Z AUTO 12013KT 080V140 9999 BKN013 BKN066 BKN110 14/13 Q0999 TEMPO 13020G35KT BKN006
  • 231930Z AUTO 11013KT CAVOK 14/13 Q0999 TEMPO 13020G35KT BKN006

TAF TAF LFMU
Valide du 23 à 15h jusqu'au 24 à 15h UTC


231400Z 2315/2415 13012KT 9999 BKN010
TEMPO 2315/2319 3000 SHRA BKN004 SCT015TCU
TEMPO 2320/2403 13020G35KT BKN006
TEMPO 2403/2412 16020G35KT SCT008
TEMPO 2412/2415 17025G40KT SCT040
ATIS : +33 4 67 90 88 88
Pas de NOTAMs connus pour ce terrain.
1 SIGMET publié pour la FIR Marseille (LFMM) :
 
Turbulence forte
LFMM SIGMET 2 VALID 232100/232300 LFPW
LFMM MARSEILLE FIR/UIR SEV TURB FCST WI N4330 E00245 - N4545 E00300 - N4545 E00500 - N4500 E00500 - N4330 E00245 SFC/FL070 STNR INTSF=



MET'MAP, la Météo Aéronautique d'un coup d'oeil ! - Copyright ORBIFLY Décembre 2007 - Disclaimer

ORBIFLY MET'MAP TEAM :

Programmation & Développement : Alexandra Zaïnal
Conception & Développement : Baudouin d'Aumeries
Co-Programmation & Développement : Marc-Olivier Méhu
Soutien technique & logistique : Manuel Goepfert

Contact : metmap@orbifly.com




SOURCES & CREDITS :

   NOAA